Time;durP1;ratioP1;P1;durP2;ratioP2;P2;SDS_P1;SDS_P2;PMS_P1;PMS_P2;Temp;Humidity;BMP_temperature;BMP_pressure;BME280_temperature;BME280_humidity;BME280_pressure;Samples;Min_cycle;Max_cycle;Signal;HPM_P1;HPM_P2
2023/12/31 00:00:08;;;;;;;10.45;6.43;;;;;;;;;;5000350;28;20049;-78
2023/12/31 00:02:36;;;;;;;9.07;5.75;;;;;;;;;;4997606;28;20072;-78
2023/12/31 00:05:04;;;;;;;7.90;5.30;;;;;;;;;;5001724;28;20111;-79
2023/12/31 00:07:31;;;;;;;8.60;5.45;;;;;;;;;;5019378;28;20488;-79
2023/12/31 00:09:58;;;;;;;9.02;6.38;;;;;;;;;;5001598;28;20056;-79
2023/12/31 00:12:25;;;;;;;9.88;5.70;;;;;;;;;;5003747;28;20077;-79
2023/12/31 00:14:51;;;;;;;8.15;5.88;;;;;;;;;;4999746;28;20141;-79
2023/12/31 00:17:18;;;;;;;9.13;5.53;;;;;;;;;;5005322;28;20076;-78
2023/12/31 00:19:45;;;;;;;7.07;4.78;;;;;;;;;;5015903;28;20042;-78
2023/12/31 00:22:12;;;;;;;11.18;7.20;;;;;;;;;;4999107;28;20076;-78
2023/12/31 00:24:39;;;;;;;12.65;7.78;;;;;;;;;;4997139;28;20129;-78
2023/12/31 00:27:05;;;;;;;13.30;8.68;;;;;;;;;;4995813;28;20056;-78
2023/12/31 00:29:32;;;;;;;9.90;6.65;;;;;;;;;;4997464;28;20100;-78
2023/12/31 00:31:59;;;;;;;9.38;7.20;;;;;;;;;;4995446;28;20454;-78
2023/12/31 00:34:26;;;;;;;9.57;6.45;;;;;;;;;;5027539;28;20588;-78
2023/12/31 00:36:53;;;;;;;9.50;5.85;;;;;;;;;;5016176;28;20108;-79
2023/12/31 00:39:20;;;;;;;8.43;5.25;;;;;;;;;;5032246;28;20049;-79
2023/12/31 00:41:46;;;;;;;6.55;4.00;;;;;;;;;;5021652;28;20557;-78
2023/12/31 00:44:13;;;;;;;8.52;4.70;;;;;;;;;;4997457;28;20076;-78
2023/12/31 00:46:40;;;;;;;7.57;4.35;;;;;;;;;;4998844;28;20053;-78
2023/12/31 00:49:07;;;;;;;8.27;4.68;;;;;;;;;;4999705;28;20422;-79
2023/12/31 00:51:33;;;;;;;6.57;4.65;;;;;;;;;;4999330;28;20050;-79
2023/12/31 00:54:00;;;;;;;8.15;4.90;;;;;;;;;;4996433;28;20111;-78
2023/12/31 00:56:27;;;;;;;7.82;4.45;;;;;;;;;;5027570;28;20077;-81
2023/12/31 00:58:54;;;;;;;7.75;5.35;;;;;;;;;;5000397;28;20473;-79
2023/12/31 01:01:21;;;;;;;7.53;4.70;;;;;;;;;;4999971;28;20125;-79
2023/12/31 01:03:48;;;;;;;10.23;4.47;;;;;;;;;;5006189;28;20075;-79
2023/12/31 01:06:14;;;;;;;7.90;5.05;;;;;;;;;;5019114;28;20050;-79
2023/12/31 01:08:41;;;;;;;7.93;5.35;;;;;;;;;;5008996;28;20081;-79
2023/12/31 01:11:08;;;;;;;7.28;4.97;;;;;;;;;;5002648;28;20076;-80
2023/12/31 01:13:35;;;;;;;8.10;4.68;;;;;;;;;;4999942;28;20103;-80
2023/12/31 01:16:02;;;;;;;5.22;4.60;;;;;;;;;;4996111;28;20469;-80
2023/12/31 01:18:29;;;;;;;5.93;4.13;;;;;;;;;;5007050;28;20122;-80
2023/12/31 01:20:56;;;;;;;7.03;4.38;;;;;;;;;;5003878;28;20411;-80
2023/12/31 01:23:25;;;;;;;8.27;5.25;;;;;;;;;;5000590;28;20077;-80
2023/12/31 01:25:52;;;;;;;7.40;4.68;;;;;;;;;;4999535;28;20483;-80
2023/12/31 01:28:19;;;;;;;6.25;4.68;;;;;;;;;;5000043;28;20053;-80
2023/12/31 01:30:46;;;;;;;6.20;4.20;;;;;;;;;;4998672;28;20065;-80
2023/12/31 01:33:13;;;;;;;10.75;5.20;;;;;;;;;;4998023;28;20054;-80
2023/12/31 01:35:40;;;;;;;7.38;4.95;;;;;;;;;;4998944;28;20130;-80
2023/12/31 01:38:06;;;;;;;9.02;5.20;;;;;;;;;;5013582;28;20060;-80
2023/12/31 01:40:33;;;;;;;7.43;5.20;;;;;;;;;;5002804;28;20077;-79
2023/12/31 01:43:00;;;;;;;6.90;4.78;;;;;;;;;;5028933;28;20041;-79
2023/12/31 01:45:28;;;;;;;9.02;4.50;;;;;;;;;;5029407;28;20077;-78
2023/12/31 01:47:54;;;;;;;6.50;4.43;;;;;;;;;;5010518;28;20046;-80
2023/12/31 01:50:22;;;;;;;6.80;4.80;;;;;;;;;;5018732;28;20053;-80
2023/12/31 01:52:48;;;;;;;6.75;4.63;;;;;;;;;;5001153;28;20112;-80
2023/12/31 01:55:16;;;;;;;6.15;4.57;;;;;;;;;;5009277;28;20058;-79
2023/12/31 01:57:43;;;;;;;5.82;4.00;;;;;;;;;;4999839;28;20053;-80
2023/12/31 02:00:10;;;;;;;5.55;4.00;;;;;;;;;;4998451;28;20052;-79
2023/12/31 02:02:37;;;;;;;8.75;5.32;;;;;;;;;;4999796;28;20054;-79
2023/12/31 02:05:05;;;;;;;7.13;4.68;;;;;;;;;;5010256;28;20084;-80
2023/12/31 02:07:32;;;;;;;9.45;5.63;;;;;;;;;;4999601;28;20054;-80
2023/12/31 02:09:59;;;;;;;6.18;4.28;;;;;;;;;;4995324;28;20050;-80
2023/12/31 02:12:25;;;;;;;5.63;3.97;;;;;;;;;;5035354;28;20057;-79
2023/12/31 02:14:52;;;;;;;7.40;4.60;;;;;;;;;;4999145;28;20089;-80
2023/12/31 02:17:19;;;;;;;6.53;4.70;;;;;;;;;;5010355;28;20057;-79
2023/12/31 02:19:46;;;;;;;6.88;4.55;;;;;;;;;;4996631;28;20084;-80
2023/12/31 02:22:13;;;;;;;7.90;4.93;;;;;;;;;;5013623;28;20505;-79
2023/12/31 02:24:48;;;;;;;8.82;5.07;;;;;;;;;;4998047;28;20096;-79
2023/12/31 02:27:16;;;;;;;7.38;5.20;;;;;;;;;;4999303;28;20119;-79
2023/12/31 02:29:43;;;;;;;7.25;4.75;;;;;;;;;;4998487;28;20042;-80
2023/12/31 02:32:10;;;;;;;9.00;4.75;;;;;;;;;;4996803;28;20575;-79
2023/12/31 02:34:37;;;;;;;6.20;4.55;;;;;;;;;;4998034;28;20448;-79
2023/12/31 02:37:03;;;;;;;6.80;4.63;;;;;;;;;;4995417;28;20045;-79
2023/12/31 02:39:30;;;;;;;6.85;4.25;;;;;;;;;;5005145;28;20113;-79
2023/12/31 02:41:57;;;;;;;6.78;4.50;;;;;;;;;;5002157;28;20053;-79
2023/12/31 02:44:24;;;;;;;6.18;4.63;;;;;;;;;;5033529;28;20064;-80
2023/12/31 02:46:50;;;;;;;7.35;5.07;;;;;;;;;;4998136;28;20456;-80
2023/12/31 02:49:17;;;;;;;7.30;4.55;;;;;;;;;;5011147;28;20083;-79
2023/12/31 02:51:44;;;;;;;6.97;4.68;;;;;;;;;;4996370;28;20115;-80
2023/12/31 02:54:11;;;;;;;6.47;4.70;;;;;;;;;;4996237;28;20564;-79
2023/12/31 02:56:41;;;;;;;8.70;4.32;;;;;;;;;;4998376;28;20050;-80
2023/12/31 02:59:08;;;;;;;7.53;4.63;;;;;;;;;;5002670;28;20057;-80
2023/12/31 03:01:35;;;;;;;5.60;3.88;;;;;;;;;;5018393;28;20049;-80
2023/12/31 03:04:02;;;;;;;6.28;4.10;;;;;;;;;;5018592;28;20436;-79
2023/12/31 03:06:32;;;;;;;5.53;4.43;;;;;;;;;;5019039;28;20079;-79
2023/12/31 03:09:01;;;;;;;6.38;3.85;;;;;;;;;;5020194;28;20512;-78
2023/12/31 03:11:28;;;;;;;5.07;4.03;;;;;;;;;;5019545;28;20616;-78
2023/12/31 03:13:55;;;;;;;6.93;4.63;;;;;;;;;;5022987;28;20080;-78
2023/12/31 03:16:24;;;;;;;6.65;4.40;;;;;;;;;;5022873;28;20111;-78
2023/12/31 03:18:54;;;;;;;5.95;4.13;;;;;;;;;;5039752;28;20155;-78
2023/12/31 03:21:21;;;;;;;5.75;4.00;;;;;;;;;;5022856;28;20496;-78
2023/12/31 03:23:48;;;;;;;6.68;4.45;;;;;;;;;;5022049;28;20106;-79
2023/12/31 03:26:15;;;;;;;6.90;4.47;;;;;;;;;;5040051;28;20057;-78
2023/12/31 03:28:42;;;;;;;6.00;4.03;;;;;;;;;;5040771;28;20057;-79
2023/12/31 03:31:09;;;;;;;5.63;4.10;;;;;;;;;;5025923;28;20508;-78
2023/12/31 03:33:37;;;;;;;6.93;4.55;;;;;;;;;;5009470;28;20060;-79
2023/12/31 03:36:06;;;;;;;7.57;4.07;;;;;;;;;;5017905;28;20056;-79
2023/12/31 03:38:33;;;;;;;8.00;3.70;;;;;;;;;;5048907;28;20053;-79
2023/12/31 03:40:59;;;;;;;6.00;4.00;;;;;;;;;;5027361;28;20110;-79
2023/12/31 03:43:26;;;;;;;5.88;3.92;;;;;;;;;;5040864;28;20052;-79
2023/12/31 03:45:53;;;;;;;5.68;3.50;;;;;;;;;;5032362;28;20053;-79
2023/12/31 03:48:20;;;;;;;6.18;3.72;;;;;;;;;;5009372;28;20081;-78
2023/12/31 03:50:47;;;;;;;6.60;3.88;;;;;;;;;;5039934;28;20080;-78
2023/12/31 03:53:14;;;;;;;5.30;3.67;;;;;;;;;;5042477;28;20528;-79
2023/12/31 03:55:41;;;;;;;4.20;3.20;;;;;;;;;;5026157;28;20483;-78
2023/12/31 03:58:08;;;;;;;5.47;3.50;;;;;;;;;;5024538;28;20048;-78
2023/12/31 04:00:35;;;;;;;5.07;3.67;;;;;;;;;;5017964;28;20076;-79
2023/12/31 04:03:03;;;;;;;4.65;3.42;;;;;;;;;;5023922;28;20060;-79
2023/12/31 04:05:30;;;;;;;5.50;3.53;;;;;;;;;;5023961;28;20080;-78
2023/12/31 04:07:58;;;;;;;7.25;3.72;;;;;;;;;;5025263;28;20052;-78
2023/12/31 04:10:25;;;;;;;4.35;3.42;;;;;;;;;;5044867;28;20045;-79
2023/12/31 04:12:52;;;;;;;4.90;3.03;;;;;;;;;;5031013;28;20052;-79
2023/12/31 04:15:19;;;;;;;8.32;3.28;;;;;;;;;;5023893;28;20048;-79
2023/12/31 04:17:46;;;;;;;5.22;2.75;;;;;;;;;;5023485;28;20071;-79
2023/12/31 04:20:13;;;;;;;4.55;2.95;;;;;;;;;;5023754;28;20045;-79
2023/12/31 04:22:39;;;;;;;3.30;2.60;;;;;;;;;;5020635;28;20049;-80
2023/12/31 04:25:07;;;;;;;4.70;3.03;;;;;;;;;;5017956;28;20057;-80
2023/12/31 04:27:38;;;;;;;5.88;2.80;;;;;;;;;;5023732;28;20144;-80
2023/12/31 04:30:06;;;;;;;3.97;2.88;;;;;;;;;;5024807;28;20049;-80
2023/12/31 04:32:33;;;;;;;4.78;2.80;;;;;;;;;;5024117;28;20128;-80
2023/12/31 04:35:00;;;;;;;4.53;2.78;;;;;;;;;;5020681;28;20103;-80
2023/12/31 04:37:27;;;;;;;5.25;3.10;;;;;;;;;;4999575;28;20077;-80
2023/12/31 04:39:54;;;;;;;4.55;2.80;;;;;;;;;;5040386;28;20500;-80
2023/12/31 04:42:21;;;;;;;4.57;2.90;;;;;;;;;;5039713;28;20053;-80
2023/12/31 04:44:48;;;;;;;3.03;2.53;;;;;;;;;;5022445;28;20504;-79
2023/12/31 04:47:14;;;;;;;3.67;2.30;;;;;;;;;;5010460;28;20045;-79
2023/12/31 04:49:42;;;;;;;3.22;2.38;;;;;;;;;;4997605;28;20050;-78
2023/12/31 04:52:09;;;;;;;3.63;2.58;;;;;;;;;;4999904;28;20073;-79
2023/12/31 04:54:37;;;;;;;5.80;2.88;;;;;;;;;;5017150;28;20049;-81
2023/12/31 04:57:04;;;;;;;3.83;2.30;;;;;;;;;;5003627;28;20149;-79
2023/12/31 04:59:31;;;;;;;3.58;2.50;;;;;;;;;;5022131;28;20046;-79
2023/12/31 05:01:59;;;;;;;2.72;2.10;;;;;;;;;;5027174;28;20041;-79
2023/12/31 05:04:26;;;;;;;2.63;2.08;;;;;;;;;;5023448;28;20045;-79
2023/12/31 05:06:53;;;;;;;3.33;2.10;;;;;;;;;;5006948;28;20064;-80
2023/12/31 05:09:20;;;;;;;3.65;2.38;;;;;;;;;;5018770;28;20080;-80
2023/12/31 05:11:47;;;;;;;4.72;2.42;;;;;;;;;;4999639;28;20045;-80
2023/12/31 05:14:14;;;;;;;5.78;2.28;;;;;;;;;;4999789;28;20477;-80
2023/12/31 05:16:41;;;;;;;2.90;2.20;;;;;;;;;;5008312;28;20045;-80
2023/12/31 05:19:08;;;;;;;4.15;1.90;;;;;;;;;;5015849;28;20107;-80
2023/12/31 05:21:35;;;;;;;3.95;2.65;;;;;;;;;;4998281;28;20077;-80
2023/12/31 05:24:01;;;;;;;3.50;1.90;;;;;;;;;;4996230;28;20062;-80
2023/12/31 05:26:28;;;;;;;2.65;2.22;;;;;;;;;;4993459;28;20128;-80
2023/12/31 05:28:55;;;;;;;3.63;2.03;;;;;;;;;;4998650;28;20050;-79
2023/12/31 05:31:22;;;;;;;3.88;1.92;;;;;;;;;;5003440;28;20418;-80
2023/12/31 05:33:49;;;;;;;3.05;1.63;;;;;;;;;;5016112;28;20520;-79
2023/12/31 05:36:16;;;;;;;3.63;1.88;;;;;;;;;;5002201;28;20050;-79
2023/12/31 05:38:45;;;;;;;2.42;1.63;;;;;;;;;;4999511;28;20050;-79
2023/12/31 05:41:13;;;;;;;2.95;1.85;;;;;;;;;;5022159;28;20045;-80
2023/12/31 05:43:39;;;;;;;2.58;2.20;;;;;;;;;;4984523;28;20076;-80
2023/12/31 05:46:06;;;;;;;2.20;1.40;;;;;;;;;;5004205;28;20053;-81
2023/12/31 05:48:33;;;;;;;1.90;1.60;;;;;;;;;;5006986;28;20093;-80
2023/12/31 05:51:00;;;;;;;4.03;1.80;;;;;;;;;;5005247;28;20049;-80
2023/12/31 05:53:27;;;;;;;1.55;1.40;;;;;;;;;;5002509;28;20049;-81
2023/12/31 05:55:53;;;;;;;2.80;1.77;;;;;;;;;;4998203;28;20072;-81
2023/12/31 05:58:20;;;;;;;2.53;2.00;;;;;;;;;;5008700;28;20045;-80
2023/12/31 06:00:47;;;;;;;1.35;1.17;;;;;;;;;;4998077;28;20552;-80
2023/12/31 06:03:14;;;;;;;2.28;1.85;;;;;;;;;;5013403;28;20045;-78
2023/12/31 06:05:41;;;;;;;3.30;1.85;;;;;;;;;;4992180;28;20533;-80
2023/12/31 06:08:08;;;;;;;2.25;1.75;;;;;;;;;;4999634;28;20472;-79
2023/12/31 06:10:35;;;;;;;2.45;1.63;;;;;;;;;;5015133;28;20449;-80
2023/12/31 06:13:02;;;;;;;1.77;1.45;;;;;;;;;;5012846;28;20093;-79
2023/12/31 06:15:29;;;;;;;2.55;1.73;;;;;;;;;;5020711;28;20080;-80
2023/12/31 06:17:56;;;;;;;2.50;2.08;;;;;;;;;;5004459;28;20127;-79
2023/12/31 06:20:23;;;;;;;2.65;1.83;;;;;;;;;;5020392;28;20064;-80
2023/12/31 06:22:49;;;;;;;2.88;1.90;;;;;;;;;;4998876;28;20073;-80
2023/12/31 06:25:16;;;;;;;2.67;1.83;;;;;;;;;;4999662;28;20054;-80
2023/12/31 06:27:43;;;;;;;2.75;2.10;;;;;;;;;;4997855;28;20516;-80
2023/12/31 06:30:10;;;;;;;3.28;2.30;;;;;;;;;;5015728;28;20073;-79
2023/12/31 06:32:37;;;;;;;3.95;2.20;;;;;;;;;;5034675;28;20049;-80
2023/12/31 06:35:05;;;;;;;3.38;2.30;;;;;;;;;;5018312;28;20045;-79
2023/12/31 06:37:31;;;;;;;4.00;2.28;;;;;;;;;;4998901;28;20081;-79
2023/12/31 06:39:58;;;;;;;2.47;1.92;;;;;;;;;;4992092;28;20073;-79
2023/12/31 06:42:25;;;;;;;2.80;2.17;;;;;;;;;;5017409;28;20045;-79
2023/12/31 06:44:52;;;;;;;2.38;1.73;;;;;;;;;;4997364;28;20100;-80
2023/12/31 06:47:19;;;;;;;3.08;2.15;;;;;;;;;;5017230;28;20045;-80
2023/12/31 06:49:46;;;;;;;2.97;1.88;;;;;;;;;;5007585;28;20048;-79
2023/12/31 06:52:13;;;;;;;3.47;2.15;;;;;;;;;;5026763;28;20048;-80
2023/12/31 06:54:41;;;;;;;2.58;1.73;;;;;;;;;;4992195;28;20054;-78
2023/12/31 06:57:08;;;;;;;4.78;2.60;;;;;;;;;;4996582;28;20053;-79
2023/12/31 06:59:35;;;;;;;4.72;2.40;;;;;;;;;;5006071;28;20106;-80
2023/12/31 07:02:03;;;;;;;7.03;3.83;;;;;;;;;;5020744;28;20069;-78
2023/12/31 07:04:30;;;;;;;4.20;2.65;;;;;;;;;;4997977;28;20054;-79
2023/12/31 07:06:56;;;;;;;2.85;2.33;;;;;;;;;;5029944;28;20053;-79
2023/12/31 07:09:23;;;;;;;2.80;2.45;;;;;;;;;;5014148;28;20093;-79
2023/12/31 07:11:50;;;;;;;7.50;2.33;;;;;;;;;;4981672;28;20100;-79
2023/12/31 07:14:17;;;;;;;3.92;2.58;;;;;;;;;;4981321;28;20108;-79
2023/12/31 07:16:44;;;;;;;4.30;2.72;;;;;;;;;;4983434;28;20509;-79
2023/12/31 07:19:11;;;;;;;3.05;2.35;;;;;;;;;;5020440;28;20549;-79
2023/12/31 07:21:37;;;;;;;4.20;2.28;;;;;;;;;;5005313;28;20053;-79
2023/12/31 07:24:04;;;;;;;3.40;2.10;;;;;;;;;;5017319;28;20049;-79
2023/12/31 07:26:31;;;;;;;4.80;2.60;;;;;;;;;;4997318;28;20133;-79
2023/12/31 07:28:58;;;;;;;2.97;2.47;;;;;;;;;;4998860;28;20058;-79
2023/12/31 07:31:39;;;;;;;3.00;2.00;;;;;;;;;;4997254;28;20060;-79
2023/12/31 07:34:06;;;;;;;2.30;1.65;;;;;;;;;;4998748;28;20050;-79
2023/12/31 07:36:34;;;;;;;2.75;2.10;;;;;;;;;;4998016;28;20073;-79
2023/12/31 07:39:00;;;;;;;3.45;1.90;;;;;;;;;;4994200;28;20050;-80
2023/12/31 07:41:27;;;;;;;3.35;2.08;;;;;;;;;;5013648;28;20049;-80
2023/12/31 07:43:54;;;;;;;2.92;2.13;;;;;;;;;;4997590;28;20056;-81
2023/12/31 07:46:22;;;;;;;1.92;1.73;;;;;;;;;;5002679;28;20053;-77
2023/12/31 07:48:51;;;;;;;3.03;2.03;;;;;;;;;;4996568;28;20442;-79
2023/12/31 07:51:18;;;;;;;3.42;1.58;;;;;;;;;;5010420;28;20398;-80
2023/12/31 07:53:45;;;;;;;3.85;2.08;;;;;;;;;;5012583;28;20131;-79
2023/12/31 07:56:15;;;;;;;2.72;2.42;;;;;;;;;;5005531;28;20061;-79
2023/12/31 07:58:42;;;;;;;2.20;1.63;;;;;;;;;;5009347;28;20069;-80
2023/12/31 08:01:10;;;;;;;2.55;1.20;;;;;;;;;;5005650;28;20046;-79
2023/12/31 08:03:37;;;;;;;3.70;1.40;;;;;;;;;;4994058;28;20099;-80
2023/12/31 08:06:04;;;;;;;1.98;1.42;;;;;;;;;;4996235;28;20045;-79
2023/12/31 08:08:31;;;;;;;1.42;1.30;;;;;;;;;;5014003;28;20125;-79
2023/12/31 08:11:00;;;;;;;1.95;1.27;;;;;;;;;;4994795;28;20060;-83
2023/12/31 08:13:29;;;;;;;1.73;1.20;;;;;;;;;;4998163;28;20080;-79
2023/12/31 08:15:57;;;;;;;2.10;1.63;;;;;;;;;;4996465;28;20109;-79
2023/12/31 08:18:24;;;;;;;3.80;1.40;;;;;;;;;;5001369;28;20118;-79
2023/12/31 08:20:51;;;;;;;2.13;1.23;;;;;;;;;;5021689;28;20041;-78
2023/12/31 08:23:19;;;;;;;2.30;1.40;;;;;;;;;;5018185;28;20529;-80
2023/12/31 08:25:45;;;;;;;2.67;1.50;;;;;;;;;;5031647;28;20500;-80
2023/12/31 08:28:12;;;;;;;1.45;1.30;;;;;;;;;;5018251;28;20423;-80
2023/12/31 08:30:39;;;;;;;1.27;1.02;;;;;;;;;;5007016;28;20057;-78
2023/12/31 08:33:06;;;;;;;2.08;1.10;;;;;;;;;;5032446;28;20052;-80
2023/12/31 08:35:33;;;;;;;1.63;1.05;;;;;;;;;;5000154;28;20073;-80
2023/12/31 08:38:00;;;;;;;2.55;1.40;;;;;;;;;;4995923;28;20046;-79
2023/12/31 08:40:27;;;;;;;2.63;1.35;;;;;;;;;;5013915;28;20076;-80
2023/12/31 08:42:54;;;;;;;1.20;1.10;;;;;;;;;;5020667;28;20080;-80
2023/12/31 08:45:21;;;;;;;2.10;1.40;;;;;;;;;;5021005;28;20085;-80
2023/12/31 08:47:48;;;;;;;1.85;1.45;;;;;;;;;;5019803;28;20079;-79
2023/12/31 08:50:15;;;;;;;3.55;1.75;;;;;;;;;;5018002;28;20083;-80
2023/12/31 08:52:45;;;;;;;2.15;1.73;;;;;;;;;;4997933;28;20046;-80
2023/12/31 08:55:13;;;;;;;1.55;1.13;;;;;;;;;;4998146;28;20128;-80
2023/12/31 08:57:42;;;;;;;1.50;1.40;;;;;;;;;;4999313;28;20060;-80
2023/12/31 09:00:11;;;;;;;2.25;1.48;;;;;;;;;;4997986;28;20049;-80
2023/12/31 09:02:38;;;;;;;4.68;2.72;;;;;;;;;;5007183;28;20156;-80
2023/12/31 09:05:05;;;;;;;12.75;7.20;;;;;;;;;;5018391;28;20468;-81
2023/12/31 09:07:34;;;;;;;19.02;10.43;;;;;;;;;;5000792;28;20068;-78
2023/12/31 09:10:03;;;;;;;10.00;7.68;;;;;;;;;;5002549;28;20061;-78
2023/12/31 09:12:30;;;;;;;3.55;3.15;;;;;;;;;;5015469;28;20045;-79
2023/12/31 09:14:59;;;;;;;2.83;2.60;;;;;;;;;;4993075;28;20116;-79
2023/12/31 09:17:26;;;;;;;3.78;2.47;;;;;;;;;;5021057;28;20033;-77
2023/12/31 09:19:54;;;;;;;2.88;2.58;;;;;;;;;;4990874;28;20045;-79
2023/12/31 09:22:21;;;;;;;2.00;1.80;;;;;;;;;;5006412;28;20446;-79
2023/12/31 09:24:50;;;;;;;3.53;1.60;;;;;;;;;;4996611;28;20512;-79
2023/12/31 09:27:18;;;;;;;1.70;1.40;;;;;;;;;;4996180;28;20432;-79
2023/12/31 09:29:46;;;;;;;2.17;1.27;;;;;;;;;;5003335;28;20056;-77
2023/12/31 09:32:13;;;;;;;1.45;1.27;;;;;;;;;;4989088;28;20045;-77
2023/12/31 09:34:40;;;;;;;2.17;1.80;;;;;;;;;;4991275;28;20497;-77
2023/12/31 09:37:09;;;;;;;2.35;1.10;;;;;;;;;;5003115;28;20523;-77
2023/12/31 09:39:36;;;;;;;2.22;1.55;;;;;;;;;;4991668;28;20050;-77
2023/12/31 09:42:13;;;;;;;2.42;1.55;;;;;;;;;;5004834;28;20634;-77
2023/12/31 09:44:40;;;;;;;2.88;1.85;;;;;;;;;;5007135;28;20096;-77
2023/12/31 09:47:09;;;;;;;2.08;1.52;;;;;;;;;;4999628;28;20135;-81
2023/12/31 09:49:39;;;;;;;3.88;2.25;;;;;;;;;;4997148;28;20049;-78
2023/12/31 09:52:07;;;;;;;2.28;1.92;;;;;;;;;;5009828;28;20053;-77
2023/12/31 09:54:38;;;;;;;3.15;2.17;;;;;;;;;;5008121;28;20042;-77
2023/12/31 09:57:06;;;;;;;2.65;2.25;;;;;;;;;;5016442;28;20666;-78
2023/12/31 09:59:33;;;;;;;3.45;2.40;;;;;;;;;;4994266;28;20103;-79
2023/12/31 10:02:05;;;;;;;3.65;2.22;;;;;;;;;;4993686;28;20448;-77
2023/12/31 10:04:32;;;;;;;3.60;2.35;;;;;;;;;;5011429;28;20111;-78
2023/12/31 10:06:59;;;;;;;2.53;1.90;;;;;;;;;;4997456;28;20451;-78
2023/12/31 10:09:27;;;;;;;3.83;2.30;;;;;;;;;;4993665;28;20149;-77
2023/12/31 10:11:58;;;;;;;3.45;2.20;;;;;;;;;;5013292;28;20053;-78
2023/12/31 10:14:25;;;;;;;3.88;2.28;;;;;;;;;;5001168;28;20850;-78
2023/12/31 10:16:52;;;;;;;2.30;1.90;;;;;;;;;;4996857;28;20053;-79
2023/12/31 10:19:19;;;;;;;2.78;1.80;;;;;;;;;;5013643;28;20119;-78
2023/12/31 10:21:46;;;;;;;4.03;1.75;;;;;;;;;;4996954;28;20081;-76
2023/12/31 10:24:13;;;;;;;3.88;2.00;;;;;;;;;;5008684;28;20448;-76
2023/12/31 10:26:40;;;;;;;5.22;2.05;;;;;;;;;;4995201;28;20049;-77
2023/12/31 10:29:07;;;;;;;2.20;2.00;;;;;;;;;;5017297;28;20537;-79
2023/12/31 10:31:33;;;;;;;2.92;2.03;;;;;;;;;;5014388;28;20464;-80
2023/12/31 10:34:14;;;;;;;2.75;1.90;;;;;;;;;;4999857;28;20078;-79
2023/12/31 10:36:44;;;;;;;2.65;1.92;;;;;;;;;;4980822;28;20081;-80
2023/12/31 10:39:15;;;;;;;2.83;1.98;;;;;;;;;;4979567;28;20053;-80
2023/12/31 10:41:43;;;;;;;2.47;1.83;;;;;;;;;;4981508;28;20096;-80
2023/12/31 10:44:13;;;;;;;3.00;2.22;;;;;;;;;;5011751;28;20049;-80
2023/12/31 10:46:42;;;;;;;4.10;2.30;;;;;;;;;;4995926;28;20145;-79
2023/12/31 10:49:10;;;;;;;4.65;2.28;;;;;;;;;;4994190;28;20501;-82
2023/12/31 10:51:39;;;;;;;3.05;2.00;;;;;;;;;;4996191;28;20066;-80
2023/12/31 10:54:08;;;;;;;2.33;2.13;;;;;;;;;;4993837;28;20050;-79
2023/12/31 10:56:34;;;;;;;2.33;2.00;;;;;;;;;;4995527;28;20045;-80
2023/12/31 10:59:01;;;;;;;2.40;2.13;;;;;;;;;;4995451;28;20146;-80
2023/12/31 11:01:28;;;;;;;2.03;1.63;;;;;;;;;;5016695;28;20169;-81
2023/12/31 11:03:56;;;;;;;2.83;2.45;;;;;;;;;;5000839;28;20148;-80
2023/12/31 11:06:23;;;;;;;2.78;2.28;;;;;;;;;;5017096;28;21582;-80
2023/12/31 11:08:50;;;;;;;3.72;2.53;;;;;;;;;;4995896;28;20064;-80
2023/12/31 11:11:18;;;;;;;2.80;2.15;;;;;;;;;;5012657;28;20056;-79
2023/12/31 11:13:49;;;;;;;2.92;2.22;;;;;;;;;;5013745;28;20576;-77
2023/12/31 11:16:28;;;;;;;3.50;2.53;;;;;;;;;;5014046;28;20060;-78
2023/12/31 11:19:33;;;;;;;4.68;2.28;;;;;;;;;;5024447;28;20053;-78
2023/12/31 11:22:26;;;;;;;3.03;2.05;;;;;;;;;;5029589;28;20045;-79
2023/12/31 11:25:02;;;;;;;2.40;2.20;;;;;;;;;;5011112;28;20045;-77
2023/12/31 11:27:31;;;;;;;4.18;2.35;;;;;;;;;;4996931;28;20052;-81
2023/12/31 11:29:58;;;;;;;2.72;2.05;;;;;;;;;;4991707;28;20691;-79
2023/12/31 11:32:25;;;;;;;2.58;1.92;;;;;;;;;;5009283;28;20128;-78
2023/12/31 11:34:52;;;;;;;3.63;2.22;;;;;;;;;;4997335;28;20045;-77
2023/12/31 11:37:20;;;;;;;2.70;2.00;;;;;;;;;;5030424;28;20056;-78
2023/12/31 11:39:48;;;;;;;4.22;2.00;;;;;;;;;;4998232;28;20072;-79
2023/12/31 11:42:17;;;;;;;3.72;2.20;;;;;;;;;;5006082;28;20144;-78
2023/12/31 11:44:45;;;;;;;3.80;2.03;;;;;;;;;;4997607;28;20092;-79
2023/12/31 11:47:16;;;;;;;3.65;2.15;;;;;;;;;;5003369;28;20315;-77
2023/12/31 11:49:54;;;;;;;4.35;2.08;;;;;;;;;;4999414;28;20079;-77
2023/12/31 11:52:31;;;;;;;5.85;2.50;;;;;;;;;;4994509;28;20059;-77
2023/12/31 11:54:59;;;;;;;4.95;2.55;;;;;;;;;;4996854;28;20123;-77
2023/12/31 11:57:26;;;;;;;1.80;1.60;;;;;;;;;;4993052;28;20057;-77
2023/12/31 11:59:53;;;;;;;1.77;1.13;;;;;;;;;;4996149;28;20077;-77
2023/12/31 12:02:21;;;;;;;1.45;1.20;;;;;;;;;;5012766;28;20398;-77
2023/12/31 12:04:48;;;;;;;2.53;1.20;;;;;;;;;;5005651;28;20077;-76
2023/12/31 12:07:15;;;;;;;2.25;1.73;;;;;;;;;;5015713;28;20045;-76
2023/12/31 12:09:42;;;;;;;1.63;1.05;;;;;;;;;;4992323;28;20080;-78
2023/12/31 12:12:09;;;;;;;1.63;0.90;;;;;;;;;;5009498;28;20049;-82
2023/12/31 12:14:36;;;;;;;1.40;0.98;;;;;;;;;;4998275;28;20050;-80
2023/12/31 12:17:03;;;;;;;1.02;0.70;;;;;;;;;;5005679;28;20113;-81
2023/12/31 12:19:36;;;;;;;0.70;0.70;;;;;;;;;;4995239;28;20497;-81
2023/12/31 12:22:04;;;;;;;;;;;;;;;;;;5019606;28;20071;-82
2023/12/31 12:24:30;;;;;;;1.15;0.65;;;;;;;;;;5017011;28;19925;-82
2023/12/31 12:26:58;;;;;;;0.93;0.70;;;;;;;;;;5001143;28;20559;-82
2023/12/31 12:29:27;;;;;;;1.38;0.77;;;;;;;;;;4999519;28;20048;-81
2023/12/31 12:31:53;;;;;;;1.30;1.02;;;;;;;;;;5011069;28;20080;-80
2023/12/31 12:34:20;;;;;;;1.75;0.70;;;;;;;;;;4998063;28;20056;-79
2023/12/31 12:36:48;;;;;;;0.85;0.60;;;;;;;;;;4999355;28;20471;-79
2023/12/31 12:39:15;;;;;;;0.70;0.70;;;;;;;;;;4998852;28;20421;-79
2023/12/31 12:41:48;;;;;;;1.35;0.70;;;;;;;;;;5014090;28;20061;-79
2023/12/31 12:44:15;;;;;;;0.93;0.80;;;;;;;;;;4995827;28;20046;-79
2023/12/31 12:46:43;;;;;;;0.50;0.50;;;;;;;;;;4998132;28;20544;-78
2023/12/31 12:49:11;;;;;;;1.70;0.90;;;;;;;;;;4994521;28;20057;-78
2023/12/31 12:51:39;;;;;;;1.55;1.08;;;;;;;;;;4997241;28;20041;-78
2023/12/31 12:54:06;;;;;;;0.80;0.60;;;;;;;;;;4995503;28;20809;-78
2023/12/31 12:56:33;;;;;;;0.60;0.60;;;;;;;;;;5013747;28;20091;-78
2023/12/31 12:59:00;;;;;;;1.15;0.60;;;;;;;;;;4995724;28;20673;-79
2023/12/31 13:01:27;;;;;;;2.00;0.90;;;;;;;;;;4995787;28;20718;-77
2023/12/31 13:03:54;;;;;;;1.40;0.90;;;;;;;;;;4998313;28;20041;-79
2023/12/31 13:06:21;;;;;;;0.73;0.60;;;;;;;;;;5010231;28;20049;-79
2023/12/31 13:08:48;;;;;;;0.82;0.60;;;;;;;;;;5016555;28;20050;-79
2023/12/31 13:11:16;;;;;;;3.17;0.60;;;;;;;;;;5011992;28;20111;-79
2023/12/31 13:13:45;;;;;;;1.00;0.90;;;;;;;;;;4998424;28;20046;-79
2023/12/31 13:16:12;;;;;;;0.55;0.50;;;;;;;;;;5016010;28;20607;-78
2023/12/31 13:18:48;;;;;;;0.90;0.50;;;;;;;;;;5000862;28;20049;-78
2023/12/31 13:21:16;;;;;;;1.00;0.90;;;;;;;;;;5005425;28;20096;-78
2023/12/31 13:23:43;;;;;;;1.13;1.02;;;;;;;;;;4998438;28;20042;-78
2023/12/31 13:26:10;;;;;;;2.50;1.38;;;;;;;;;;5014290;28;20053;-78
2023/12/31 13:28:38;;;;;;;2.10;1.52;;;;;;;;;;5004382;28;20064;-77
2023/12/31 13:31:05;;;;;;;1.13;1.02;;;;;;;;;;4997124;28;20136;-77
2023/12/31 13:33:32;;;;;;;0.77;0.70;;;;;;;;;;4993335;28;20129;-77
2023/12/31 13:35:59;;;;;;;1.17;0.70;;;;;;;;;;5012600;28;20069;-77
2023/12/31 13:38:27;;;;;;;1.15;0.88;;;;;;;;;;4993549;28;20099;-76
2023/12/31 13:40:55;;;;;;;1.20;1.10;;;;;;;;;;4996693;28;20083;-76
2023/12/31 13:43:22;;;;;;;2.10;1.00;;;;;;;;;;4994032;28;20052;-76
2023/12/31 13:45:49;;;;;;;2.10;1.10;;;;;;;;;;4993868;28;20064;-76
2023/12/31 13:48:17;;;;;;;1.02;0.95;;;;;;;;;;5011554;28;20049;-76
2023/12/31 13:50:45;;;;;;;4.57;2.00;;;;;;;;;;5026608;28;20041;-76
2023/12/31 13:53:13;;;;;;;1.80;1.20;;;;;;;;;;5008887;28;20139;-77
2023/12/31 13:55:41;;;;;;;1.90;1.38;;;;;;;;;;4991268;28;20459;-76
2023/12/31 13:58:08;;;;;;;3.90;2.38;;;;;;;;;;4992682;28;20451;-76
2023/12/31 14:00:36;;;;;;;2.55;2.00;;;;;;;;;;5006934;28;20045;-76
2023/12/31 14:03:03;;;;;;;2.33;1.67;;;;;;;;;;4991913;28;20103;-76
2023/12/31 14:05:34;;;;;;;1.42;1.00;;;;;;;;;;4995260;28;20506;-77
2023/12/31 14:08:01;;;;;;;0.70;0.70;;;;;;;;;;4995298;28;20115;-77
2023/12/31 14:10:29;;;;;;;1.23;0.93;;;;;;;;;;4995860;28;20127;-77
2023/12/31 14:12:56;;;;;;;3.38;1.38;;;;;;;;;;5011535;28;20051;-77
2023/12/31 14:15:24;;;;;;;1.92;0.90;;;;;;;;;;4996396;28;20072;-78
2023/12/31 14:17:52;;;;;;;0.40;0.40;;;;;;;;;;5009990;28;20049;-77
2023/12/31 14:20:22;;;;;;;1.08;0.70;;;;;;;;;;5005876;28;20608;-78
2023/12/31 14:22:50;;;;;;;1.23;0.90;;;;;;;;;;5028849;28;20424;-77
2023/12/31 14:25:17;;;;;;;1.33;0.85;;;;;;;;;;5012271;28;20050;-77
2023/12/31 14:27:44;;;;;;;2.70;1.02;;;;;;;;;;4996523;28;20061;-78
2023/12/31 14:30:12;;;;;;;1.05;0.90;;;;;;;;;;4993920;28;20057;-78
2023/12/31 14:32:39;;;;;;;2.63;1.45;;;;;;;;;;4993330;28;20083;-77
2023/12/31 14:35:06;;;;;;;0.95;0.80;;;;;;;;;;4994914;28;20103;-77
2023/12/31 14:37:33;;;;;;;2.40;1.63;;;;;;;;;;5005867;28;20527;-77
2023/12/31 14:40:00;;;;;;;2.95;1.42;;;;;;;;;;5009914;28;20060;-77
2023/12/31 14:42:27;;;;;;;2.10;0.85;;;;;;;;;;5000632;28;20138;-77
2023/12/31 14:44:54;;;;;;;1.40;0.80;;;;;;;;;;4998469;28;20041;-77